Time;durP1;ratioP1;P1;durP2;ratioP2;P2;SDS_P1;SDS_P2;PMS_P1;PMS_P2;Temp;Humidity;BMP_temperature;BMP_pressure;BME280_temperature;BME280_humidity;BME280_pressure;Samples;Min_cycle;Max_cycle;Signal;HPM_P1;HPM_P2
2022/09/02 00:01:10;;;;;;;;;;;20.20;58.40;;;;;;5144398;27;20026;-52
2022/09/02 00:03:36;;;;;;;;;;;20.90;58.90;;;;;;5144330;27;20030;-47
2022/09/02 00:06:01;;;;;;;;;;;21.50;56.60;;;;;;5149823;27;19970;-47
2022/09/02 00:08:27;;;;;;;;;;;20.60;55.10;;;;;;5139974;27;19924;-47
2022/09/02 00:10:53;;;;;;;;;;;20.00;54.20;;;;;;5144089;27;19953;-56
2022/09/02 00:13:19;;;;;;;;;;;19.70;53.40;;;;;;5149106;27;20017;-47
2022/09/02 00:15:45;;;;;;;;;;;19.80;55.40;;;;;;5144020;27;20404;-46
2022/09/02 00:18:11;;;;;;;;;;;20.40;59.50;;;;;;5149570;27;20657;-47
2022/09/02 00:20:37;;;;;;;;;;;21.30;57.90;;;;;;5144047;27;20017;-47
2022/09/02 00:23:03;;;;;;;;;;;20.90;56.00;;;;;;5143870;27;19927;-46
2022/09/02 00:25:29;;;;;;;;;;;20.30;54.70;;;;;;5147045;27;21002;-48
2022/09/02 00:27:55;;;;;;;;;;;20.00;53.70;;;;;;5141375;27;19942;-45
2022/09/02 00:30:21;;;;;;;;;;;19.60;53.20;;;;;;5143442;27;19923;-46
2022/09/02 00:32:46;;;;;;;;;;;19.90;58.40;;;;;;5149410;27;20382;-47
2022/09/02 00:35:12;;;;;;;;;;;20.80;59.20;;;;;;5143808;27;19923;-43
2022/09/02 00:37:38;;;;;;;;;;;21.60;57.30;;;;;;5149219;27;19923;-47
2022/09/02 00:40:04;;;;;;;;;;;20.90;55.60;;;;;;5125182;27;19927;-45
2022/09/02 00:42:30;;;;;;;;;;;20.10;54.90;;;;;;5125401;27;20021;-46
2022/09/02 00:44:56;;;;;;;;;;;20.00;53.70;;;;;;5144784;27;19945;-49
2022/09/02 00:47:21;;;;;;;;;;;19.70;52.90;;;;;;5142757;27;20382;-47
2022/09/02 00:49:48;;;;;;;;;;;20.00;58.20;;;;;;5143722;27;20095;-46
2022/09/02 00:52:22;;;;;;;;;;;20.80;59.50;;;;;;5149100;27;19923;-46
2022/09/02 00:54:49;;;;;;;;;;;21.60;57.70;;;;;;5123462;27;20349;-53
2022/09/02 00:57:18;;;;;;;;;;;21.70;56.40;;;;;;5146327;27;20390;-53
2022/09/02 00:59:44;;;;;;;;;;;21.50;56.20;;;;;;5128641;27;20386;-53
2022/09/02 01:02:10;;;;;;;;;;;21.30;55.60;;;;;;5140904;27;20227;-56
2022/09/02 01:04:35;;;;;;;;;;;21.30;55.10;;;;;;5126156;27;19927;-57
2022/09/02 01:07:02;;;;;;;;;;;21.30;54.90;;;;;;5143032;27;19976;-56
2022/09/02 01:09:27;;;;;;;;;;;21.30;54.60;;;;;;5124243;27;20609;-57
2022/09/02 01:11:54;;;;;;;;;;;21.30;54.40;;;;;;5148926;27;19976;-56
2022/09/02 01:14:20;;;;;;;;;;;21.50;54.10;;;;;;5123028;27;19927;-54
2022/09/02 01:16:48;;;;;;;;;;;21.40;54.00;;;;;;5143065;27;19923;-54
2022/09/02 01:19:19;;;;;;;;;;;21.40;54.20;;;;;;5148602;27;19980;-53
2022/09/02 01:21:49;;;;;;;;;;;21.50;53.70;;;;;;5138771;27;19967;-52
2022/09/02 01:24:15;;;;;;;;;;;21.50;53.70;;;;;;5147348;27;19931;-51
2022/09/02 01:26:41;;;;;;;;;;;21.40;53.90;;;;;;5143238;27;20299;-54
2022/09/02 01:29:06;;;;;;;;;;;21.50;53.70;;;;;;5142942;27;19923;-54
2022/09/02 01:31:32;;;;;;;;;;;21.50;53.70;;;;;;5148339;27;19930;-52
2022/09/02 01:33:58;;;;;;;;;;;21.60;53.50;;;;;;5142770;27;19938;-55
2022/09/02 01:36:24;;;;;;;;;;;21.60;53.20;;;;;;5143090;27;19991;-51
2022/09/02 01:38:50;;;;;;;;;;;21.60;53.50;;;;;;5146121;27;19927;-52
2022/09/02 01:41:15;;;;;;;;;;;21.50;53.80;;;;;;5139729;27;19931;-51
2022/09/02 01:43:41;;;;;;;;;;;21.40;53.80;;;;;;5145748;27;19923;-55
2022/09/02 01:46:07;;;;;;;;;;;21.40;53.80;;;;;;5145644;27;20331;-54
2022/09/02 01:48:33;;;;;;;;;;;21.40;54.00;;;;;;5142936;27;20251;-54
2022/09/02 01:50:59;;;;;;;;;;;21.30;54.00;;;;;;5148070;27;19979;-54
2022/09/02 01:53:25;;;;;;;;;;;21.50;53.60;;;;;;5142484;27;19923;-55
2022/09/02 01:55:51;;;;;;;;;;;21.50;53.60;;;;;;5142561;27;19927;-52
2022/09/02 01:58:17;;;;;;;;;;;21.60;53.40;;;;;;5143959;27;20367;-53
2022/09/02 02:00:42;;;;;;;;;;;21.50;53.30;;;;;;5140938;27;19923;-52
2022/09/02 02:03:08;;;;;;;;;;;21.40;53.40;;;;;;5143127;27;19927;-53
2022/09/02 02:05:34;;;;;;;;;;;21.30;53.40;;;;;;5147691;27;19927;-53
2022/09/02 02:08:00;;;;;;;;;;;21.40;53.40;;;;;;5142316;27;20003;-53
2022/09/02 02:10:26;;;;;;;;;;;21.50;53.20;;;;;;5147956;27;19923;-52
2022/09/02 02:12:51;;;;;;;;;;;21.50;53.10;;;;;;5142517;27;19927;-54
2022/09/02 02:15:17;;;;;;;;;;;21.40;53.10;;;;;;5140852;27;19923;-54
2022/09/02 02:17:43;;;;;;;;;;;21.50;52.90;;;;;;5144393;27;20277;-53
2022/09/02 02:20:09;;;;;;;;;;;21.40;53.10;;;;;;5141757;27;19931;-50
2022/09/02 02:22:35;;;;;;;;;;;21.50;52.80;;;;;;5142092;27;19979;-53
2022/09/02 02:25:01;;;;;;;;;;;21.50;52.70;;;;;;5147744;27;19923;-53
2022/09/02 02:27:27;;;;;;;;;;;21.50;52.70;;;;;;5142070;27;19925;-52
2022/09/02 02:29:53;;;;;;;;;;;21.60;52.60;;;;;;5147564;27;20324;-55
2022/09/02 02:32:20;;;;;;;;;;;21.60;52.50;;;;;;5141795;27;19927;-54
2022/09/02 02:34:46;;;;;;;;;;;21.40;52.70;;;;;;5118871;27;19961;-54
2022/09/02 02:37:12;;;;;;;;;;;21.50;52.60;;;;;;5145517;27;19940;-54
2022/09/02 02:39:38;;;;;;;;;;;21.60;52.20;;;;;;5141584;27;19927;-52
2022/09/02 02:42:04;;;;;;;;;;;21.50;52.30;;;;;;5141703;27;20624;-54
2022/09/02 02:44:30;;;;;;;;;;;21.70;52.00;;;;;;5147338;27;19930;-55
2022/09/02 02:46:57;;;;;;;;;;;21.70;51.90;;;;;;5141801;27;19948;-51
2022/09/02 02:49:22;;;;;;;;;;;21.70;51.70;;;;;;5147447;27;20305;-54
2022/09/02 02:51:48;;;;;;;;;;;21.60;52.10;;;;;;5120840;27;19986;-51
2022/09/02 02:54:14;;;;;;;;;;;21.50;52.30;;;;;;5137044;27;19923;-54
2022/09/02 02:56:40;;;;;;;;;;;21.50;52.20;;;;;;5146612;27;19923;-54
2022/09/02 02:59:06;;;;;;;;;;;21.50;52.20;;;;;;5141621;27;19926;-53
2022/09/02 03:01:32;;;;;;;;;;;21.60;52.20;;;;;;5141684;27;20155;-54
2022/09/02 03:03:57;;;;;;;;;;;21.60;51.90;;;;;;5147057;27;20294;-55
2022/09/02 03:06:23;;;;;;;;;;;21.60;52.10;;;;;;5141713;27;20043;-52
2022/09/02 03:08:49;;;;;;;;;;;21.70;52.00;;;;;;5145102;27;19923;-55
2022/09/02 03:11:15;;;;;;;;;;;21.60;51.60;;;;;;5140319;27;20305;-53
2022/09/02 03:13:41;;;;;;;;;;;21.80;51.10;;;;;;5139139;27;20141;-54
2022/09/02 03:16:07;;;;;;;;;;;21.60;51.60;;;;;;5146757;27;19927;-50
2022/09/02 03:18:33;;;;;;;;;;;21.60;51.60;;;;;;5141167;27;20018;-53
2022/09/02 03:20:58;;;;;;;;;;;21.50;51.60;;;;;;5122668;27;19925;-52
2022/09/02 03:23:25;;;;;;;;;;;21.50;51.40;;;;;;5146716;27;20390;-52
2022/09/02 03:25:51;;;;;;;;;;;21.50;51.40;;;;;;5141288;27;19924;-52
2022/09/02 03:28:16;;;;;;;;;;;21.40;51.50;;;;;;5142546;27;20428;-54
2022/09/02 03:30:43;;;;;;;;;;;21.40;51.40;;;;;;5140803;27;19992;-54
2022/09/02 03:33:09;;;;;;;;;;;21.30;51.60;;;;;;5140313;27;19941;-53
2022/09/02 03:35:37;;;;;;;;;;;21.30;51.80;;;;;;5146543;27;19927;-53
2022/09/02 03:38:03;;;;;;;;;;;21.50;51.40;;;;;;5141047;27;20296;-55
2022/09/02 03:40:29;;;;;;;;;;;21.30;51.70;;;;;;5140945;27;19923;-51
2022/09/02 03:42:55;;;;;;;;;;;21.30;51.80;;;;;;5146758;27;20428;-51
2022/09/02 03:45:21;;;;;;;;;;;21.20;51.90;;;;;;5141047;27;19927;-53
2022/09/02 03:47:52;;;;;;;;;;;21.30;51.70;;;;;;5138081;27;19931;-54
2022/09/02 03:50:18;;;;;;;;;;;21.10;51.90;;;;;;5144147;27;19923;-52
2022/09/02 03:52:44;;;;;;;;;;;21.30;51.30;;;;;;5140794;27;19923;-52
2022/09/02 03:55:10;;;;;;;;;;;21.30;51.40;;;;;;5146423;27;20393;-54
2022/09/02 03:57:36;;;;;;;;;;;21.20;51.70;;;;;;5140970;27;20326;-54
2022/09/02 04:00:03;;;;;;;;;;;21.20;51.50;;;;;;5140574;27;19923;-53
2022/09/02 04:02:29;;;;;;;;;;;21.20;51.40;;;;;;5146258;27;19937;-52
2022/09/02 04:04:55;;;;;;;;;;;21.10;51.60;;;;;;5143229;27;20316;-53
2022/09/02 04:07:20;;;;;;;;;;;21.00;51.60;;;;;;5119450;27;19927;-53
2022/09/02 04:09:46;;;;;;;;;;;21.10;51.30;;;;;;5149099;27;19927;-51
2022/09/02 04:12:12;;;;;;;;;;;21.30;51.10;;;;;;5144359;27;19929;-55
2022/09/02 04:14:38;;;;;;;;;;;21.20;51.20;;;;;;5148168;27;19927;-55
2022/09/02 04:17:04;;;;;;;;;;;21.20;51.10;;;;;;5146366;27;19978;-55
2022/09/02 04:19:30;;;;;;;;;;;21.20;51.00;;;;;;5144049;27;20294;-52
2022/09/02 04:21:55;;;;;;;;;;;21.30;50.90;;;;;;5149552;27;19924;-55
2022/09/02 04:24:21;;;;;;;;;;;21.20;51.00;;;;;;5141498;27;19927;-53
2022/09/02 04:26:47;;;;;;;;;;;21.20;51.10;;;;;;5141618;27;19931;-55
2022/09/02 04:29:13;;;;;;;;;;;21.00;51.60;;;;;;5149126;27;19923;-53
2022/09/02 04:31:38;;;;;;;;;;;21.20;51.30;;;;;;5143952;27;19923;-54
2022/09/02 04:34:05;;;;;;;;;;;21.10;51.30;;;;;;5145382;27;19929;-54
2022/09/02 04:36:31;;;;;;;;;;;21.10;51.40;;;;;;5148644;27;19923;-54
2022/09/02 04:38:57;;;;;;;;;;;21.30;51.00;;;;;;5143909;27;20040;-52
2022/09/02 04:41:24;;;;;;;;;;;21.30;50.90;;;;;;5149306;27;19972;-54
2022/09/02 04:43:51;;;;;;;;;;;21.30;50.70;;;;;;5139557;27;19927;-53
2022/09/02 04:46:16;;;;;;;;;;;21.30;50.70;;;;;;5142701;27;20317;-52
2022/09/02 04:48:42;;;;;;;;;;;21.50;50.10;;;;;;5148992;27;19930;-54
2022/09/02 04:51:12;;;;;;;;;;;21.50;50.10;;;;;;5143605;27;19923;-52
2022/09/02 04:53:38;;;;;;;;;;;21.60;50.00;;;;;;5143437;27;19923;-52
2022/09/02 04:56:07;;;;;;;;;;;21.50;50.30;;;;;;5149044;27;19934;-50
2022/09/02 04:58:32;;;;;;;;;;;21.40;50.20;;;;;;5143502;27;19930;-55
2022/09/02 05:00:58;;;;;;;;;;;21.40;50.30;;;;;;5146430;27;20375;-52
2022/09/02 05:03:25;;;;;;;;;;;21.30;50.50;;;;;;5140776;27;19923;-55
2022/09/02 05:05:58;;;;;;;;;;;21.30;50.60;;;;;;5142975;27;19930;-56
2022/09/02 05:08:25;;;;;;;;;;;21.40;50.40;;;;;;5148706;27;20222;-53
2022/09/02 05:10:52;;;;;;;;;;;21.60;50.20;;;;;;5143228;27;19935;-54
2022/09/02 05:13:18;;;;;;;;;;;21.70;49.80;;;;;;5143164;27;20026;-53
2022/09/02 05:15:44;;;;;;;;;;;21.50;50.20;;;;;;5147853;27;20294;-54
2022/09/02 05:18:10;;;;;;;;;;;21.40;50.50;;;;;;5143107;27;19958;-50
2022/09/02 05:20:38;;;;;;;;;;;21.30;51.00;;;;;;5138781;27;19967;-54
2022/09/02 05:23:04;;;;;;;;;;;21.30;51.00;;;;;;5147634;27;19929;-54
2022/09/02 05:25:30;;;;;;;;;;;21.20;51.30;;;;;;5142950;27;19927;-54
2022/09/02 05:27:56;;;;;;;;;;;21.10;51.30;;;;;;5148503;27;20382;-53
2022/09/02 05:30:22;;;;;;;;;;;21.10;51.30;;;;;;5124601;27;21425;-53
2022/09/02 05:32:48;;;;;;;;;;;21.30;50.90;;;;;;5143055;27;19923;-53
2022/09/02 05:35:14;;;;;;;;;;;21.10;51.20;;;;;;5148659;27;20410;-52
2022/09/02 05:37:40;;;;;;;;;;;21.30;50.70;;;;;;5140587;27;19923;-53
2022/09/02 05:40:06;;;;;;;;;;;21.20;50.70;;;;;;5139965;27;20224;-53
2022/09/02 05:42:32;;;;;;;;;;;21.30;50.60;;;;;;5148186;27;20381;-53
2022/09/02 05:44:58;;;;;;;;;;;21.30;50.60;;;;;;5142814;27;19974;-53
2022/09/02 05:47:24;;;;;;;;;;;21.20;50.70;;;;;;5129241;27;19954;-52
2022/09/02 05:49:50;;;;;;;;;;;21.30;50.50;;;;;;5142840;27;19934;-54
2022/09/02 05:52:16;;;;;;;;;;;21.30;50.70;;;;;;5142908;27;19923;-52
2022/09/02 05:54:42;;;;;;;;;;;21.30;50.90;;;;;;5148244;27;20017;-53
2022/09/02 05:57:09;;;;;;;;;;;21.30;50.60;;;;;;5138400;27;19930;-52
2022/09/02 05:59:38;;;;;;;;;;;21.40;50.50;;;;;;5141192;27;20666;-55
2022/09/02 06:02:04;;;;;;;;;;;21.40;50.00;;;;;;5147732;27;19923;-54
2022/09/02 06:04:31;;;;;;;;;;;21.50;49.80;;;;;;5142560;27;19927;-54
2022/09/02 06:06:57;;;;;;;;;;;21.60;49.50;;;;;;5144721;27;19927;-53
2022/09/02 06:09:22;;;;;;;;;;;21.70;49.40;;;;;;5146130;27;20043;-51
2022/09/02 06:11:48;;;;;;;;;;;21.70;49.10;;;;;;5142366;27;19923;-54
2022/09/02 06:14:15;;;;;;;;;;;21.80;48.70;;;;;;5146184;27;19927;-53
2022/09/02 06:16:41;;;;;;;;;;;21.90;48.20;;;;;;5139126;27;19927;-56
2022/09/02 06:19:07;;;;;;;;;;;21.30;49.00;;;;;;5106523;27;19930;-57
2022/09/02 06:21:33;;;;;;;;;;;21.10;48.70;;;;;;5147614;27;19930;-57
2022/09/02 06:23:59;;;;;;;;;;;21.20;50.10;;;;;;5142217;27;20263;-57
2022/09/02 06:26:24;;;;;;;;;;;21.40;49.50;;;;;;5141883;27;19934;-56
2022/09/02 06:28:50;;;;;;;;;;;21.60;48.70;;;;;;5147632;27;19966;-57
2022/09/02 06:31:17;;;;;;;;;;;21.50;48.70;;;;;;5141966;27;19923;-56
2022/09/02 06:33:43;;;;;;;;;;;21.50;48.80;;;;;;5143742;27;20513;-58
2022/09/02 06:36:10;;;;;;;;;;;21.50;48.50;;;;;;5140390;27;19971;-58
2022/09/02 06:38:39;;;;;;;;;;;21.60;48.50;;;;;;5141628;27;20366;-58
2022/09/02 06:41:05;;;;;;;;;;;21.50;48.40;;;;;;5147363;27;19926;-59
2022/09/02 06:43:31;;;;;;;;;;;21.60;48.30;;;;;;5123423;27;20283;-59
2022/09/02 06:45:57;;;;;;;;;;;21.60;48.40;;;;;;5141922;27;20613;-58
2022/09/02 06:48:22;;;;;;;;;;;21.50;48.40;;;;;;5147478;27;19930;-58
2022/09/02 06:50:48;;;;;;;;;;;21.50;48.50;;;;;;5140737;27;20161;-57
2022/09/02 06:53:16;;;;;;;;;;;21.60;48.30;;;;;;5143262;27;19923;-60
2022/09/02 06:55:42;;;;;;;;;;;21.60;48.30;;;;;;5141499;27;19929;-57
2022/09/02 06:58:08;;;;;;;;;;;21.50;48.40;;;;;;5141532;27;19952;-57
2022/09/02 07:00:35;;;;;;;;;;;21.60;48.30;;;;;;5147228;27;20054;-58
2022/09/02 07:05:45;;;;;;;;;;;21.50;48.40;;;;;;5141362;27;20443;-57
2022/09/02 07:08:11;;;;;;;;;;;21.50;48.60;;;;;;5146881;27;19930;-58
2022/09/02 07:10:38;;;;;;;;;;;21.50;48.50;;;;;;5137187;27;20294;-57
2022/09/02 07:13:04;;;;;;;;;;;21.60;48.40;;;;;;5139958;27;20014;-59
2022/09/02 07:15:30;;;;;;;;;;;21.60;48.50;;;;;;5146655;27;19927;-58
2022/09/02 07:17:56;;;;;;;;;;;21.70;48.30;;;;;;5141286;27;19963;-59
2022/09/02 07:20:21;;;;;;;;;;;21.70;48.20;;;;;;5146604;27;19923;-57
2022/09/02 07:22:48;;;;;;;;;;;21.70;48.20;;;;;;5141523;27;20431;-58
2022/09/02 07:25:14;;;;;;;;;;;21.70;48.10;;;;;;5141311;27;20392;-58
2022/09/02 07:27:40;;;;;;;;;;;21.70;48.20;;;;;;5145326;27;19941;-59
2022/09/02 07:30:06;;;;;;;;;;;21.70;48.20;;;;;;5137842;27;19923;-57
2022/09/02 07:32:31;;;;;;;;;;;21.70;48.30;;;;;;5140550;27;20543;-58
2022/09/02 07:34:57;;;;;;;;;;;21.70;48.20;;;;;;5146446;27;19960;-58
2022/09/02 07:37:23;;;;;;;;;;;21.80;48.20;;;;;;5141076;27;21438;-58
2022/09/02 07:39:50;;;;;;;;;;;21.70;48.30;;;;;;5146486;27;20350;-55
2022/09/02 07:42:15;;;;;;;;;;;21.70;48.30;;;;;;5147844;27;20298;-59
2022/09/02 07:44:41;;;;;;;;;;;21.80;48.30;;;;;;5144854;27;19930;-59
2022/09/02 07:47:07;;;;;;;;;;;21.80;48.20;;;;;;5146926;27;19927;-59
2022/09/02 07:49:33;;;;;;;;;;;21.80;48.20;;;;;;5142862;27;19924;-59
2022/09/02 07:51:59;;;;;;;;;;;21.80;48.20;;;;;;5144389;27;19966;-59
2022/09/02 07:54:25;;;;;;;;;;;21.90;47.80;;;;;;5150172;27;19931;-59
2022/09/02 07:56:51;;;;;;;;;;;22.00;47.70;;;;;;5125981;27;20382;-59
2022/09/02 07:59:17;;;;;;;;;;;21.90;47.80;;;;;;5144615;27;19930;-55
2022/09/02 08:01:43;;;;;;;;;;;21.80;48.00;;;;;;5150093;27;19939;-59
2022/09/02 08:04:09;;;;;;;;;;;21.80;48.30;;;;;;5125372;27;19969;-59
2022/09/02 08:06:36;;;;;;;;;;;21.80;48.30;;;;;;5145708;27;19927;-57
2022/09/02 08:09:09;;;;;;;;;;;21.90;47.80;;;;;;5125643;27;19933;-59
2022/09/02 08:11:39;;;;;;;;;;;21.90;47.90;;;;;;5126669;27;20188;-59
2022/09/02 08:14:06;;;;;;;;;;;21.80;47.80;;;;;;5149789;27;19923;-59
2022/09/02 08:16:32;;;;;;;;;;;20.60;49.10;;;;;;5144265;27;19929;-59
2022/09/02 08:18:58;;;;;;;;;;;20.10;51.70;;;;;;5144080;27;20420;-57
2022/09/02 08:21:24;;;;;;;;;;;21.00;50.60;;;;;;5149578;27;19930;-51
2022/09/02 08:23:50;;;;;;;;;;;21.80;48.00;;;;;;5140730;27;19923;-56
2022/09/02 08:26:17;;;;;;;;;;;20.80;49.00;;;;;;5145217;27;19971;-59
2022/09/02 08:28:42;;;;;;;;;;;20.40;49.20;;;;;;5147244;27;19927;-58
2022/09/02 08:31:09;;;;;;;;;;;20.10;49.60;;;;;;5125924;27;20405;-57
2022/09/02 08:33:35;;;;;;;;;;;20.10;49.70;;;;;;5149537;27;19926;-57
2022/09/02 08:36:02;;;;;;;;;;;20.20;49.50;;;;;;5144202;27;19930;-56
2022/09/02 08:38:28;;;;;;;;;;;20.10;49.20;;;;;;5144143;27;20392;-48
2022/09/02 08:40:53;;;;;;;;;;;20.30;49.00;;;;;;5148698;27;19923;-55
2022/09/02 08:43:38;;;;;;;;;;;20.10;49.20;;;;;;5139552;27;20389;-46
2022/09/02 08:46:08;;;;;;;;;;;20.00;49.40;;;;;;5140274;27;19923;-47
2022/09/02 08:48:36;;;;;;;;;;;20.00;48.80;;;;;;5130987;27;19927;-45
2022/09/02 08:51:04;;;;;;;;;;;19.80;49.50;;;;;;5142444;27;19924;-45
2022/09/02 08:53:35;;;;;;;;;;;19.70;49.40;;;;;;5143553;27;20383;-46
2022/09/02 08:56:02;;;;;;;;;;;20.00;48.80;;;;;;5148950;27;19923;-49
2022/09/02 08:58:29;;;;;;;;;;;19.80;49.30;;;;;;5124502;27;19935;-47
2022/09/02 09:01:13;;;;;;;;;;;19.80;49.20;;;;;;5126111;27;20454;-51
2022/09/02 09:03:51;;;;;;;;;;;19.70;49.20;;;;;;5147971;27;20029;-47
2022/09/02 09:06:22;;;;;;;;;;;19.80;48.80;;;;;;5125107;27;19923;-46
2022/09/02 09:08:59;;;;;;;;;;;20.70;50.00;;;;;;5129368;27;19924;-55
2022/09/02 09:11:28;;;;;;;;;;;21.70;48.30;;;;;;5130560;27;19933;-48
2022/09/02 09:13:57;;;;;;;;;;;20.80;48.40;;;;;;5143447;27;19923;-48
2022/09/02 09:16:27;;;;;;;;;;;20.20;48.60;;;;;;5130341;27;19923;-44
2022/09/02 09:19:02;;;;;;;;;;;20.00;48.80;;;;;;5139982;27;20322;-49
2022/09/02 09:21:32;;;;;;;;;;;19.90;48.70;;;;;;5141346;27;20014;-47
2022/09/02 09:23:59;;;;;;;;;;;19.70;48.80;;;;;;5148411;27;20021;-46
2022/09/02 09:26:29;;;;;;;;;;;19.80;48.90;;;;;;5143069;27;20293;-47
2022/09/02 09:28:58;;;;;;;;;;;19.80;49.60;;;;;;5142912;27;20377;-47
2022/09/02 09:31:28;;;;;;;;;;;19.80;49.50;;;;;;5148553;27;19929;-47
2022/09/02 09:33:55;;;;;;;;;;;19.80;49.50;;;;;;5125041;27;19930;-47
2022/09/02 09:36:31;;;;;;;;;;;19.80;49.30;;;;;;5141811;27;20157;-49
2022/09/02 09:38:57;;;;;;;;;;;19.70;48.70;;;;;;5127226;27;19923;-47
2022/09/02 09:41:23;;;;;;;;;;;19.50;48.60;;;;;;5142490;27;19930;-45
2022/09/02 09:43:49;;;;;;;;;;;20.10;48.50;;;;;;5142705;27;19934;-45
2022/09/02 09:46:24;;;;;;;;;;;21.10;47.80;;;;;;5148414;27;20392;-48
2022/09/02 09:48:50;;;;;;;;;;;21.70;45.70;;;;;;5142871;27;19975;-46
2022/09/02 09:51:16;;;;;;;;;;;20.40;47.10;;;;;;5148257;27;19927;-48
2022/09/02 09:53:42;;;;;;;;;;;20.20;47.80;;;;;;5142813;27;19927;-47
2022/09/02 09:56:17;;;;;;;;;;;19.80;48.40;;;;;;5119900;27;20888;-46
2022/09/02 09:58:44;;;;;;;;;;;19.90;47.80;;;;;;5147074;27;20023;-47
2022/09/02 10:01:13;;;;;;;;;;;19.80;47.60;;;;;;5141988;27;19932;-45
2022/09/02 10:03:59;;;;;;;;;;;19.80;47.70;;;;;;5124103;27;19929;-44
2022/09/02 10:06:29;;;;;;;;;;;19.80;47.60;;;;;;5148067;27;19927;-48
2022/09/02 10:08:56;;;;;;;;;;;19.70;47.40;;;;;;5142523;27;19923;-45
2022/09/02 10:11:23;;;;;;;;;;;19.80;47.00;;;;;;5142370;27;19923;-46
2022/09/02 10:13:49;;;;;;;;;;;19.80;47.30;;;;;;5144685;27;19929;-49
2022/09/02 10:16:19;;;;;;;;;;;19.90;46.80;;;;;;5140167;27;20006;-47
2022/09/02 10:18:55;;;;;;;;;;;19.80;46.60;;;;;;5123378;27;19927;-47
2022/09/02 10:21:30;;;;;;;;;;;19.80;46.40;;;;;;5147600;27;20458;-45
2022/09/02 10:24:00;;;;;;;;;;;19.90;45.90;;;;;;5123703;27;19929;-45
2022/09/02 10:26:34;;;;;;;;;;;19.60;46.50;;;;;;5123843;27;19923;-45
2022/09/02 10:29:19;;;;;;;;;;;20.90;45.40;;;;;;5147855;27;19923;-50
2022/09/02 10:31:44;;;;;;;;;;;21.90;43.20;;;;;;5140513;27;19931;-48
2022/09/02 10:34:20;;;;;;;;;;;20.60;45.10;;;;;;5139520;27;19930;-47
2022/09/02 10:36:54;;;;;;;;;;;20.30;45.30;;;;;;5127468;27;19975;-46
2022/09/02 10:39:30;;;;;;;;;;;20.00;46.00;;;;;;5122229;27;22349;-44
2022/09/02 10:41:57;;;;;;;;;;;19.90;45.40;;;;;;5142062;27;19929;-46
2022/09/02 10:44:25;;;;;;;;;;;19.80;45.60;;;;;;5129115;27;19937;-45
2022/09/02 10:47:02;;;;;;;;;;;19.80;45.10;;;;;;5123387;27;19929;-46
2022/09/02 10:49:32;;;;;;;;;;;19.80;45.10;;;;;;5144868;27;19957;-56
2022/09/02 10:51:57;;;;;;;;;;;19.80;45.50;;;;;;5141324;27;19983;-45
2022/09/02 10:54:42;;;;;;;;;;;19.90;45.80;;;;;;5141189;27;19938;-46
2022/09/02 10:57:12;;;;;;;;;;;19.90;45.70;;;;;;5146746;27;19930;-54
2022/09/02 10:59:40;;;;;;;;;;;20.00;45.40;;;;;;5143878;27;19947;-44
2022/09/02 11:02:06;;;;;;;;;;;19.90;45.30;;;;;;5122980;27;20426;-46
2022/09/02 11:04:48;;;;;;;;;;;19.80;45.40;;;;;;5147158;27;19923;-45
2022/09/02 11:07:16;;;;;;;;;;;19.80;45.10;;;;;;5119012;27;19927;-46
2022/09/02 11:09:46;;;;;;;;;;;19.70;45.50;;;;;;5118822;27;19931;-45
2022/09/02 11:12:15;;;;;;;;;;;19.70;45.60;;;;;;5145844;27;19931;-46
2022/09/02 11:14:50;;;;;;;;;;;19.80;44.90;;;;;;5140196;27;19923;-46
2022/09/02 11:17:19;;;;;;;;;;;19.80;44.90;;;;;;5141589;27;19923;-45
2022/09/02 11:19:47;;;;;;;;;;;19.80;45.30;;;;;;5126463;27;19927;-45
2022/09/02 11:22:27;;;;;;;;;;;19.70;45.70;;;;;;5141182;27;19931;-45
2022/09/02 11:25:01;;;;;;;;;;;19.90;45.20;;;;;;5141488;27;20355;-45
2022/09/02 11:27:38;;;;;;;;;;;19.80;45.10;;;;;;5124729;27;19931;-47
2022/09/02 11:30:05;;;;;;;;;;;19.80;44.70;;;;;;5139344;27;20004;-46
2022/09/02 11:32:38;;;;;;;;;;;19.80;44.60;;;;;;5140859;27;20134;-47
2022/09/02 11:35:05;;;;;;;;;;;19.80;45.00;;;;;;5126432;27;20027;-44
2022/09/02 11:38:10;;;;;;;;;;;21.30;43.10;;;;;;5123537;27;20251;-46
2022/09/02 11:41:00;;;;;;;;;;;21.80;41.90;;;;;;5037436;28;19936;-45
2022/09/02 11:43:28;;;;;;;;;;;20.40;44.80;;;;;;5042413;28;20022;-47
2022/09/02 11:45:55;;;;;;;;;;;20.20;45.00;;;;;;5081699;27;19967;-47
2022/09/02 11:48:28;;;;;;;;;;;20.00;44.90;;;;;;5139398;27;19979;-47
2022/09/02 11:51:03;;;;;;;;;;;19.90;44.90;;;;;;5146545;27;19929;-46
2022/09/02 11:53:35;;;;;;;;;;;20.10;44.30;;;;;;5140884;27;19967;-47
2022/09/02 11:56:02;;;;;;;;;;;19.80;45.10;;;;;;5122106;27;19968;-46
2022/09/02 11:58:38;;;;;;;;;;;19.80;45.40;;;;;;5127123;27;19924;-47
2022/09/02 12:01:05;;;;;;;;;;;19.80;45.60;;;;;;5140631;27;19929;-47
2022/09/02 12:03:31;;;;;;;;;;;19.80;46.10;;;;;;5119745;27;19934;-48
2022/09/02 12:06:07;;;;;;;;;;;19.90;45.70;;;;;;5124078;27;19928;-47
2022/09/02 12:08:35;;;;;;;;;;;19.80;46.30;;;;;;5121737;27;20022;-45
2022/09/02 12:11:03;;;;;;;;;;;19.80;45.50;;;;;;5140650;27;20624;-51
2022/09/02 12:13:47;;;;;;;;;;;19.70;45.60;;;;;;5145935;27;19923;-47
2022/09/02 12:16:22;;;;;;;;;;;19.50;46.10;;;;;;5140660;27;20286;-47
2022/09/02 12:18:54;;;;;;;;;;;19.80;45.80;;;;;;5140693;27;19929;-46
2022/09/02 12:21:20;;;;;;;;;;;19.90;45.80;;;;;;5145458;27;19924;-48
2022/09/02 12:23:49;;;;;;;;;;;20.10;45.20;;;;;;5136101;27;19979;-50
2022/09/02 12:26:15;;;;;;;;;;;19.80;45.90;;;;;;5145978;27;20345;-55
2022/09/02 12:28:41;;;;;;;;;;;19.70;46.40;;;;;;5146776;27;20390;-46
2022/09/02 12:31:08;;;;;;;;;;;19.80;46.10;;;;;;5144326;27;20026;-45
2022/09/02 12:33:38;;;;;;;;;;;19.90;46.00;;;;;;5149673;27;20309;-48
2022/09/02 12:36:04;;;;;;;;;;;19.80;46.10;;;;;;5125570;27;20370;-46
2022/09/02 12:38:31;;;;;;;;;;;20.20;45.40;;;;;;5143769;27;19934;-45
2022/09/02 12:41:17;;;;;;;;;;;21.40;43.50;;;;;;5146043;27;19927;-46
2022/09/02 12:44:03;;;;;;;;;;;21.80;42.50;;;;;;5141987;27;20014;-46
2022/09/02 12:46:34;;;;;;;;;;;20.50;44.70;;;;;;5125445;27;20035;-47
2022/09/02 12:49:10;;;;;;;;;;;20.20;44.80;;;;;;5130739;27;19929;-50
2022/09/02 12:51:55;;;;;;;;;;;20.10;45.10;;;;;;5143749;27;19923;-49
2022/09/02 12:54:51;;;;;;;;;;;19.90;45.60;;;;;;5143908;27;20014;-47
2022/09/02 12:57:17;;;;;;;;;;;20.00;45.60;;;;;;5123184;27;20284;-54
2022/09/02 12:59:43;;;;;;;;;;;20.00;45.60;;;;;;5123743;27;20068;-48
2022/09/02 13:02:27;;;;;;;;;;;20.00;46.10;;;;;;5142085;27;19933;-48
2022/09/02 13:05:14;;;;;;;;;;;19.90;46.00;;;;;;5148391;27;19933;-57
2022/09/02 13:07:40;;;;;;;;;;;20.20;45.20;;;;;;5149105;27;20359;-47
2022/09/02 13:10:25;;;;;;;;;;;19.90;45.50;;;;;;5143649;27;19976;-49
2022/09/02 13:12:55;;;;;;;;;;;20.00;45.20;;;;;;5143560;27;19926;-50
2022/09/02 13:15:56;;;;;;;;;;;19.90;45.10;;;;;;5129827;27;19924;-46
2022/09/02 13:18:40;;;;;;;;;;;19.80;45.60;;;;;;5034289;28;20368;-54
2022/09/02 13:21:18;;;;;;;;;;;19.90;45.80;;;;;;5134133;27;19930;-49
2022/09/02 13:23:50;;;;;;;;;;;20.00;45.60;;;;;;5148759;27;19933;-46
2022/09/02 13:26:31;;;;;;;;;;;19.80;45.90;;;;;;5125273;27;19942;-46
2022/09/02 13:29:08;;;;;;;;;;;19.90;46.30;;;;;;5143375;27;20433;-48
2022/09/02 13:31:33;;;;;;;;;;;19.90;46.10;;;;;;5128795;27;19927;-47
2022/09/02 13:34:03;;;;;;;;;;;19.90;46.10;;;;;;5143401;27;20305;-46
2022/09/02 13:36:30;;;;;;;;;;;19.90;46.10;;;;;;5103322;27;20397;-48
2022/09/02 13:39:08;;;;;;;;;;;19.80;46.50;;;;;;5128277;27;19927;-48
2022/09/02 13:41:33;;;;;;;;;;;19.90;46.50;;;;;;5142784;27;20297;-47
2022/09/02 13:44:27;;;;;;;;;;;19.80;46.90;;;;;;5143105;27;20214;-48
2022/09/02 13:47:01;;;;;;;;;;;19.80;47.00;;;;;;5144224;27;19927;-45
2022/09/02 13:49:33;;;;;;;;;;;20.10;46.40;;;;;;5124707;27;19923;-49
2022/09/02 13:51:59;;;;;;;;;;;19.80;47.10;;;;;;5143306;27;20271;-48
2022/09/02 13:54:32;;;;;;;;;;;19.80;47.80;;;;;;5145133;27;19979;-46
2022/09/02 13:56:59;;;;;;;;;;;19.80;48.00;;;;;;5141562;27;19923;-48
2022/09/02 13:59:38;;;;;;;;;;;19.90;48.00;;;;;;5123858;27;19934;-47
2022/09/02 14:02:22;;;;;;;;;;;20.10;47.50;;;;;;5144819;27;20018;-46
2022/09/02 14:04:49;;;;;;;;;;;19.80;47.50;;;;;;5142983;27;20267;-47
2022/09/02 14:07:15;;;;;;;;;;;20.00;47.20;;;;;;5142930;27;20113;-46
2022/09/02 14:09:40;;;;;;;;;;;19.90;47.40;;;;;;5128895;27;20364;-46
2022/09/02 14:12:07;;;;;;;;;;;20.00;47.40;;;;;;5140898;27;20301;-50
2022/09/02 14:14:33;;;;;;;;;;;19.80;47.90;;;;;;5144949;27;19927;-53
2022/09/02 14:17:18;;;;;;;;;;;20.00;47.30;;;;;;5143022;27;19923;-45
2022/09/02 14:19:44;;;;;;;;;;;19.90;47.50;;;;;;5124431;27;20453;-50
2022/09/02 14:22:20;;;;;;;;;;;20.00;47.10;;;;;;5147778;27;19973;-47
2022/09/02 14:24:46;;;;;;;;;;;20.00;47.10;;;;;;5125910;27;19927;-48
2022/09/02 14:27:17;;;;;;;;;;;19.90;47.30;;;;;;5123277;27;19928;-46